sensor_id;sensor_type;location;lat;lon;timestamp;temperature;humidity
5192;DHT22;2615;44.524;11.284;2022-08-01T00:00:10;27.00;35.80
5192;DHT22;2615;44.524;11.284;2022-08-01T00:02:38;27.00;35.80
5192;DHT22;2615;44.524;11.284;2022-08-01T00:05:08;27.00;35.80
5192;DHT22;2615;44.524;11.284;2022-08-01T00:07:37;26.90;35.70
5192;DHT22;2615;44.524;11.284;2022-08-01T00:10:08;26.90;35.70
5192;DHT22;2615;44.524;11.284;2022-08-01T00:12:37;26.90;35.80
5192;DHT22;2615;44.524;11.284;2022-08-01T00:15:09;26.90;35.90
5192;DHT22;2615;44.524;11.284;2022-08-01T00:17:38;26.90;35.90
5192;DHT22;2615;44.524;11.284;2022-08-01T00:20:10;26.80;35.90
5192;DHT22;2615;44.524;11.284;2022-08-01T00:22:39;26.90;36.00
5192;DHT22;2615;44.524;11.284;2022-08-01T00:25:08;26.80;35.90
5192;DHT22;2615;44.524;11.284;2022-08-01T00:27:36;26.80;36.00
5192;DHT22;2615;44.524;11.284;2022-08-01T00:30:05;26.80;36.10
5192;DHT22;2615;44.524;11.284;2022-08-01T00:32:41;26.80;36.10
5192;DHT22;2615;44.524;11.284;2022-08-01T00:35:10;26.70;36.10
5192;DHT22;2615;44.524;11.284;2022-08-01T00:37:40;26.70;36.10
5192;DHT22;2615;44.524;11.284;2022-08-01T00:40:08;26.70;36.10
5192;DHT22;2615;44.524;11.284;2022-08-01T00:42:37;26.70;36.20
5192;DHT22;2615;44.524;11.284;2022-08-01T00:45:10;26.70;36.30
5192;DHT22;2615;44.524;11.284;2022-08-01T00:47:38;26.60;36.20
5192;DHT22;2615;44.524;11.284;2022-08-01T00:50:09;26.60;36.30
5192;DHT22;2615;44.524;11.284;2022-08-01T00:52:39;26.60;36.40
5192;DHT22;2615;44.524;11.284;2022-08-01T00:55:09;26.60;36.40
5192;DHT22;2615;44.524;11.284;2022-08-01T00:57:41;26.60;36.50
5192;DHT22;2615;44.524;11.284;2022-08-01T01:00:29;26.60;36.50
5192;DHT22;2615;44.524;11.284;2022-08-01T01:03:18;26.50;36.40
5192;DHT22;2615;44.524;11.284;2022-08-01T01:06:05;26.50;36.50
5192;DHT22;2615;44.524;11.284;2022-08-01T01:08:39;26.50;36.50
5192;DHT22;2615;44.524;11.284;2022-08-01T01:11:13;26.40;36.40
5192;DHT22;2615;44.524;11.284;2022-08-01T01:13:46;26.40;36.50
5192;DHT22;2615;44.524;11.284;2022-08-01T01:16:19;26.40;36.60
5192;DHT22;2615;44.524;11.284;2022-08-01T01:18:51;26.40;36.60
5192;DHT22;2615;44.524;11.284;2022-08-01T01:21:39;26.30;36.60
5192;DHT22;2615;44.524;11.284;2022-08-01T01:24:21;26.30;36.60
5192;DHT22;2615;44.524;11.284;2022-08-01T01:27:00;26.30;36.70
5192;DHT22;2615;44.524;11.284;2022-08-01T01:29:33;26.30;36.70
5192;DHT22;2615;44.524;11.284;2022-08-01T01:32:28;26.20;36.70
5192;DHT22;2615;44.524;11.284;2022-08-01T01:35:02;26.20;36.80
5192;DHT22;2615;44.524;11.284;2022-08-01T01:37:34;26.20;36.90
5192;DHT22;2615;44.524;11.284;2022-08-01T01:40:04;26.10;37.10
5192;DHT22;2615;44.524;11.284;2022-08-01T01:42:34;26.10;37.10
5192;DHT22;2615;44.524;11.284;2022-08-01T01:45:06;26.10;37.00
5192;DHT22;2615;44.524;11.284;2022-08-01T01:47:36;26.10;37.00
5192;DHT22;2615;44.524;11.284;2022-08-01T01:50:06;26.10;37.00
5192;DHT22;2615;44.524;11.284;2022-08-01T01:52:36;26.10;37.00
5192;DHT22;2615;44.524;11.284;2022-08-01T01:55:08;26.10;37.00
5192;DHT22;2615;44.524;11.284;2022-08-01T01:57:40;26.10;37.00
5192;DHT22;2615;44.524;11.284;2022-08-01T02:00:11;26.10;37.10
5192;DHT22;2615;44.524;11.284;2022-08-01T02:02:41;26.00;37.00
5192;DHT22;2615;44.524;11.284;2022-08-01T02:05:11;26.00;37.00
5192;DHT22;2615;44.524;11.284;2022-08-01T02:07:41;26.00;37.00
5192;DHT22;2615;44.524;11.284;2022-08-01T02:10:11;26.00;37.10
5192;DHT22;2615;44.524;11.284;2022-08-01T02:12:41;26.00;37.00
5192;DHT22;2615;44.524;11.284;2022-08-01T02:15:14;26.00;37.10
5192;DHT22;2615;44.524;11.284;2022-08-01T02:17:45;26.00;37.10
5192;DHT22;2615;44.524;11.284;2022-08-01T02:20:16;26.00;37.10
5192;DHT22;2615;44.524;11.284;2022-08-01T02:22:49;26.00;37.10
5192;DHT22;2615;44.524;11.284;2022-08-01T02:25:22;26.00;37.20
5192;DHT22;2615;44.524;11.284;2022-08-01T02:27:57;25.90;37.20
5192;DHT22;2615;44.524;11.284;2022-08-01T02:30:32;25.90;37.30
5192;DHT22;2615;44.524;11.284;2022-08-01T02:33:04;25.90;37.40
5192;DHT22;2615;44.524;11.284;2022-08-01T02:35:43;25.90;37.50
5192;DHT22;2615;44.524;11.284;2022-08-01T02:38:35;25.90;37.50
5192;DHT22;2615;44.524;11.284;2022-08-01T02:41:08;25.80;37.50
5192;DHT22;2615;44.524;11.284;2022-08-01T02:43:40;25.80;37.50
5192;DHT22;2615;44.524;11.284;2022-08-01T02:46:22;25.80;37.60
5192;DHT22;2615;44.524;11.284;2022-08-01T02:48:53;25.70;37.70
5192;DHT22;2615;44.524;11.284;2022-08-01T02:51:24;25.70;37.80
5192;DHT22;2615;44.524;11.284;2022-08-01T02:53:53;25.70;37.90
5192;DHT22;2615;44.524;11.284;2022-08-01T02:56:24;25.70;37.90
5192;DHT22;2615;44.524;11.284;2022-08-01T02:59:04;25.60;38.00
5192;DHT22;2615;44.524;11.284;2022-08-01T03:01:36;25.60;38.70
5192;DHT22;2615;44.524;11.284;2022-08-01T03:04:08;25.60;38.20
5192;DHT22;2615;44.524;11.284;2022-08-01T03:06:38;25.50;38.10
5192;DHT22;2615;44.524;11.284;2022-08-01T03:09:11;25.50;38.20
5192;DHT22;2615;44.524;11.284;2022-08-01T03:11:43;25.40;38.20
5192;DHT22;2615;44.524;11.284;2022-08-01T03:14:13;25.40;38.20
5192;DHT22;2615;44.524;11.284;2022-08-01T03:16:45;25.30;38.30
5192;DHT22;2615;44.524;11.284;2022-08-01T03:19:16;25.30;38.50
5192;DHT22;2615;44.524;11.284;2022-08-01T03:21:47;25.30;38.60
5192;DHT22;2615;44.524;11.284;2022-08-01T03:24:16;25.30;38.70
5192;DHT22;2615;44.524;11.284;2022-08-01T03:26:47;25.20;38.70
5192;DHT22;2615;44.524;11.284;2022-08-01T03:29:18;25.20;38.70
5192;DHT22;2615;44.524;11.284;2022-08-01T03:31:49;25.20;38.80
5192;DHT22;2615;44.524;11.284;2022-08-01T03:34:18;25.20;38.90
5192;DHT22;2615;44.524;11.284;2022-08-01T03:36:51;25.20;38.90
5192;DHT22;2615;44.524;11.284;2022-08-01T03:39:24;25.10;38.90
5192;DHT22;2615;44.524;11.284;2022-08-01T03:41:59;25.20;39.00
5192;DHT22;2615;44.524;11.284;2022-08-01T03:44:32;25.10;39.00
5192;DHT22;2615;44.524;11.284;2022-08-01T03:47:06;25.10;39.00
5192;DHT22;2615;44.524;11.284;2022-08-01T03:49:41;25.10;39.10
5192;DHT22;2615;44.524;11.284;2022-08-01T03:52:11;25.10;39.20
5192;DHT22;2615;44.524;11.284;2022-08-01T03:54:43;25.00;39.10
5192;DHT22;2615;44.524;11.284;2022-08-01T03:57:13;25.00;39.10
5192;DHT22;2615;44.524;11.284;2022-08-01T04:00:04;25.00;39.10
5192;DHT22;2615;44.524;11.284;2022-08-01T04:02:37;25.00;39.10
5192;DHT22;2615;44.524;11.284;2022-08-01T04:05:06;24.90;39.10
5192;DHT22;2615;44.524;11.284;2022-08-01T04:07:35;24.90;39.20
5192;DHT22;2615;44.524;11.284;2022-08-01T04:10:04;24.90;39.20
5192;DHT22;2615;44.524;11.284;2022-08-01T04:12:34;24.90;39.30
5192;DHT22;2615;44.524;11.284;2022-08-01T04:15:02;24.90;39.40
5192;DHT22;2615;44.524;11.284;2022-08-01T04:17:31;24.90;39.40
5192;DHT22;2615;44.524;11.284;2022-08-01T04:20:00;24.90;39.40
5192;DHT22;2615;44.524;11.284;2022-08-01T04:22:28;24.90;39.40
5192;DHT22;2615;44.524;11.284;2022-08-01T04:25:07;24.90;39.50
5192;DHT22;2615;44.524;11.284;2022-08-01T04:27:38;24.90;39.60
5192;DHT22;2615;44.524;11.284;2022-08-01T04:30:18;24.90;39.60
5192;DHT22;2615;44.524;11.284;2022-08-01T04:32:49;24.90;39.60
5192;DHT22;2615;44.524;11.284;2022-08-01T04:35:20;24.90;39.50
5192;DHT22;2615;44.524;11.284;2022-08-01T04:38:10;24.90;39.50
5192;DHT22;2615;44.524;11.284;2022-08-01T04:40:41;25.00;39.40
5192;DHT22;2615;44.524;11.284;2022-08-01T04:43:10;25.00;39.40
5192;DHT22;2615;44.524;11.284;2022-08-01T04:45:42;25.10;39.40
5192;DHT22;2615;44.524;11.284;2022-08-01T04:48:11;25.20;39.40
5192;DHT22;2615;44.524;11.284;2022-08-01T04:50:42;25.20;39.30
5192;DHT22;2615;44.524;11.284;2022-08-01T04:53:13;25.20;39.30
5192;DHT22;2615;44.524;11.284;2022-08-01T04:55:43;25.30;39.30
5192;DHT22;2615;44.524;11.284;2022-08-01T04:58:13;25.30;39.20
5192;DHT22;2615;44.524;11.284;2022-08-01T05:00:44;25.40;39.20
5192;DHT22;2615;44.524;11.284;2022-08-01T05:03:13;25.40;39.10
5192;DHT22;2615;44.524;11.284;2022-08-01T05:05:43;25.50;39.20
5192;DHT22;2615;44.524;11.284;2022-08-01T05:08:11;25.50;39.10
5192;DHT22;2615;44.524;11.284;2022-08-01T05:10:39;25.50;39.00
5192;DHT22;2615;44.524;11.284;2022-08-01T05:13:08;25.60;39.00
5192;DHT22;2615;44.524;11.284;2022-08-01T05:15:36;25.60;38.90
5192;DHT22;2615;44.524;11.284;2022-08-01T05:18:04;25.70;38.90
5192;DHT22;2615;44.524;11.284;2022-08-01T05:20:35;25.70;38.90
5192;DHT22;2615;44.524;11.284;2022-08-01T05:23:05;25.80;38.80
5192;DHT22;2615;44.524;11.284;2022-08-01T05:25:36;25.90;38.90
5192;DHT22;2615;44.524;11.284;2022-08-01T05:28:23;25.90;38.80
5192;DHT22;2615;44.524;11.284;2022-08-01T05:30:52;26.00;38.80
5192;DHT22;2615;44.524;11.284;2022-08-01T05:33:21;26.10;38.70
5192;DHT22;2615;44.524;11.284;2022-08-01T05:35:49;26.20;39.20
5192;DHT22;2615;44.524;11.284;2022-08-01T05:38:19;26.20;38.50
5192;DHT22;2615;44.524;11.284;2022-08-01T05:40:47;26.30;38.50
5192;DHT22;2615;44.524;11.284;2022-08-01T05:43:15;26.40;38.50
5192;DHT22;2615;44.524;11.284;2022-08-01T05:45:43;26.40;38.30
5192;DHT22;2615;44.524;11.284;2022-08-01T05:48:12;26.50;38.30
5192;DHT22;2615;44.524;11.284;2022-08-01T05:50:41;26.50;38.20
5192;DHT22;2615;44.524;11.284;2022-08-01T05:53:09;26.50;38.20
5192;DHT22;2615;44.524;11.284;2022-08-01T05:55:38;26.60;38.20
5192;DHT22;2615;44.524;11.284;2022-08-01T05:58:07;26.60;38.20
5192;DHT22;2615;44.524;11.284;2022-08-01T06:00:38;26.60;38.10
5192;DHT22;2615;44.524;11.284;2022-08-01T06:03:06;26.70;38.20
5192;DHT22;2615;44.524;11.284;2022-08-01T06:05:34;26.80;38.10
5192;DHT22;2615;44.524;11.284;2022-08-01T06:08:03;26.90;38.00
5192;DHT22;2615;44.524;11.284;2022-08-01T06:10:32;26.90;38.00
5192;DHT22;2615;44.524;11.284;2022-08-01T06:13:01;27.00;38.00
5192;DHT22;2615;44.524;11.284;2022-08-01T06:15:30;27.00;37.90
5192;DHT22;2615;44.524;11.284;2022-08-01T06:17:58;27.10;37.90
5192;DHT22;2615;44.524;11.284;2022-08-01T06:20:26;27.20;37.90
5192;DHT22;2615;44.524;11.284;2022-08-01T06:22:54;27.20;37.80
5192;DHT22;2615;44.524;11.284;2022-08-01T06:25:25;27.30;37.70
5192;DHT22;2615;44.524;11.284;2022-08-01T06:27:53;27.40;37.70
5192;DHT22;2615;44.524;11.284;2022-08-01T06:30:23;27.40;37.60
5192;DHT22;2615;44.524;11.284;2022-08-01T06:32:51;27.50;37.50
5192;DHT22;2615;44.524;11.284;2022-08-01T06:35:22;27.60;37.50
5192;DHT22;2615;44.524;11.284;2022-08-01T06:37:50;27.60;37.40
5192;DHT22;2615;44.524;11.284;2022-08-01T06:40:18;27.60;37.30
5192;DHT22;2615;44.524;11.284;2022-08-01T06:42:46;27.70;37.20
5192;DHT22;2615;44.524;11.284;2022-08-01T06:45:15;27.80;37.20
5192;DHT22;2615;44.524;11.284;2022-08-01T06:47:45;27.90;37.10
5192;DHT22;2615;44.524;11.284;2022-08-01T06:50:17;27.90;37.10
5192;DHT22;2615;44.524;11.284;2022-08-01T06:52:45;28.00;37.00
5192;DHT22;2615;44.524;11.284;2022-08-01T06:55:13;28.10;36.90
5192;DHT22;2615;44.524;11.284;2022-08-01T06:57:48;28.20;37.00
5192;DHT22;2615;44.524;11.284;2022-08-01T07:00:18;28.20;36.90
5192;DHT22;2615;44.524;11.284;2022-08-01T07:02:51;28.30;36.80
5192;DHT22;2615;44.524;11.284;2022-08-01T07:05:20;28.40;36.80
5192;DHT22;2615;44.524;11.284;2022-08-01T07:07:49;28.40;36.70
5192;DHT22;2615;44.524;11.284;2022-08-01T07:10:17;28.50;36.70
5192;DHT22;2615;44.524;11.284;2022-08-01T07:12:45;28.60;36.70
5192;DHT22;2615;44.524;11.284;2022-08-01T07:15:13;28.70;36.60
5192;DHT22;2615;44.524;11.284;2022-08-01T07:17:42;28.80;36.60
5192;DHT22;2615;44.524;11.284;2022-08-01T07:20:12;29.00;36.60
5192;DHT22;2615;44.524;11.284;2022-08-01T07:22:42;29.10;36.50
5192;DHT22;2615;44.524;11.284;2022-08-01T07:25:14;29.20;36.30
5192;DHT22;2615;44.524;11.284;2022-08-01T07:27:42;29.20;36.10
5192;DHT22;2615;44.524;11.284;2022-08-01T07:30:12;29.30;36.10
5192;DHT22;2615;44.524;11.284;2022-08-01T07:32:40;29.40;36.10
5192;DHT22;2615;44.524;11.284;2022-08-01T07:35:09;29.60;36.00
5192;DHT22;2615;44.524;11.284;2022-08-01T07:37:38;29.60;35.70
5192;DHT22;2615;44.524;11.284;2022-08-01T07:40:15;29.80;35.60
5192;DHT22;2615;44.524;11.284;2022-08-01T07:42:43;29.80;35.40
5192;DHT22;2615;44.524;11.284;2022-08-01T07:45:12;29.90;35.30
5192;DHT22;2615;44.524;11.284;2022-08-01T07:47:41;30.00;35.20
5192;DHT22;2615;44.524;11.284;2022-08-01T07:50:09;30.20;35.20
5192;DHT22;2615;44.524;11.284;2022-08-01T07:52:41;30.20;35.20
5192;DHT22;2615;44.524;11.284;2022-08-01T07:55:09;30.40;35.20
5192;DHT22;2615;44.524;11.284;2022-08-01T07:57:42;30.50;35.10
5192;DHT22;2615;44.524;11.284;2022-08-01T08:00:12;30.60;35.10
5192;DHT22;2615;44.524;11.284;2022-08-01T08:02:40;30.70;35.00
5192;DHT22;2615;44.524;11.284;2022-08-01T08:05:09;30.80;35.00
5192;DHT22;2615;44.524;11.284;2022-08-01T08:07:37;31.00;35.00
5192;DHT22;2615;44.524;11.284;2022-08-01T08:10:08;31.10;35.00
5192;DHT22;2615;44.524;11.284;2022-08-01T08:12:36;31.20;34.80
5192;DHT22;2615;44.524;11.284;2022-08-01T08:15:05;31.30;34.70
5192;DHT22;2615;44.524;11.284;2022-08-01T08:17:34;31.40;34.60
5192;DHT22;2615;44.524;11.284;2022-08-01T08:20:04;31.50;34.50
5192;DHT22;2615;44.524;11.284;2022-08-01T08:22:36;31.60;34.40
5192;DHT22;2615;44.524;11.284;2022-08-01T08:25:07;31.60;34.20
5192;DHT22;2615;44.524;11.284;2022-08-01T08:27:35;31.80;34.20
5192;DHT22;2615;44.524;11.284;2022-08-01T08:30:05;31.80;34.10
5192;DHT22;2615;44.524;11.284;2022-08-01T08:32:35;31.90;34.10
5192;DHT22;2615;44.524;11.284;2022-08-01T08:35:04;32.00;34.00
5192;DHT22;2615;44.524;11.284;2022-08-01T08:37:34;32.00;34.50
5192;DHT22;2615;44.524;11.284;2022-08-01T08:40:14;32.10;34.00
5192;DHT22;2615;44.524;11.284;2022-08-01T08:42:44;32.20;34.10
5192;DHT22;2615;44.524;11.284;2022-08-01T08:45:13;32.30;34.00
5192;DHT22;2615;44.524;11.284;2022-08-01T08:47:41;32.40;34.00
5192;DHT22;2615;44.524;11.284;2022-08-01T08:50:13;32.50;33.90
5192;DHT22;2615;44.524;11.284;2022-08-01T08:52:43;32.60;33.80
5192;DHT22;2615;44.524;11.284;2022-08-01T08:55:14;32.70;33.50
5192;DHT22;2615;44.524;11.284;2022-08-01T08:57:45;32.80;33.30
5192;DHT22;2615;44.524;11.284;2022-08-01T09:00:15;32.90;33.20
5192;DHT22;2615;44.524;11.284;2022-08-01T09:02:45;33.00;33.10
5192;DHT22;2615;44.524;11.284;2022-08-01T09:05:14;33.10;32.80
5192;DHT22;2615;44.524;11.284;2022-08-01T09:07:45;33.20;32.60
5192;DHT22;2615;44.524;11.284;2022-08-01T09:10:15;33.30;33.10
5192;DHT22;2615;44.524;11.284;2022-08-01T09:13:06;33.30;32.30
5192;DHT22;2615;44.524;11.284;2022-08-01T09:15:42;33.40;32.00
5192;DHT22;2615;44.524;11.284;2022-08-01T09:18:27;33.50;32.10
5192;DHT22;2615;44.524;11.284;2022-08-01T09:21:13;33.60;32.00
5192;DHT22;2615;44.524;11.284;2022-08-01T09:23:43;33.90;31.50
5192;DHT22;2615;44.524;11.284;2022-08-01T09:26:29;33.90;31.30
5192;DHT22;2615;44.524;11.284;2022-08-01T09:29:01;34.10;31.60
5192;DHT22;2615;44.524;11.284;2022-08-01T09:31:39;34.20;30.90
5192;DHT22;2615;44.524;11.284;2022-08-01T09:34:13;34.40;30.70
5192;DHT22;2615;44.524;11.284;2022-08-01T09:36:48;34.50;30.50
5192;DHT22;2615;44.524;11.284;2022-08-01T09:39:22;34.70;30.40
5192;DHT22;2615;44.524;11.284;2022-08-01T09:41:54;34.90;30.30
5192;DHT22;2615;44.524;11.284;2022-08-01T09:44:37;35.00;30.10
5192;DHT22;2615;44.524;11.284;2022-08-01T09:47:10;35.10;29.90
5192;DHT22;2615;44.524;11.284;2022-08-01T09:49:43;35.30;29.90
5192;DHT22;2615;44.524;11.284;2022-08-01T09:52:19;35.40;29.80
5192;DHT22;2615;44.524;11.284;2022-08-01T09:54:53;35.60;29.70
5192;DHT22;2615;44.524;11.284;2022-08-01T09:57:23;35.80;29.60
5192;DHT22;2615;44.524;11.284;2022-08-01T09:59:53;36.00;29.40
5192;DHT22;2615;44.524;11.284;2022-08-01T10:02:29;36.20;29.30
5192;DHT22;2615;44.524;11.284;2022-08-01T10:04:57;36.40;29.10
5192;DHT22;2615;44.524;11.284;2022-08-01T10:07:34;36.50;29.00
5192;DHT22;2615;44.524;11.284;2022-08-01T10:10:11;36.50;28.70
5192;DHT22;2615;44.524;11.284;2022-08-01T10:12:42;36.70;28.70
5192;DHT22;2615;44.524;11.284;2022-08-01T10:15:14;36.80;28.50
5192;DHT22;2615;44.524;11.284;2022-08-01T10:17:54;37.00;28.20
5192;DHT22;2615;44.524;11.284;2022-08-01T10:20:31;37.20;27.90
5192;DHT22;2615;44.524;11.284;2022-08-01T10:23:00;37.40;27.60
5192;DHT22;2615;44.524;11.284;2022-08-01T10:25:35;37.60;27.50
5192;DHT22;2615;44.524;11.284;2022-08-01T10:28:14;37.80;27.10
5192;DHT22;2615;44.524;11.284;2022-08-01T10:30:50;38.10;26.90
5192;DHT22;2615;44.524;11.284;2022-08-01T10:33:22;38.20;26.60
5192;DHT22;2615;44.524;11.284;2022-08-01T10:36:11;38.40;26.30
5192;DHT22;2615;44.524;11.284;2022-08-01T10:38:39;38.50;26.30
5192;DHT22;2615;44.524;11.284;2022-08-01T10:41:09;38.70;26.20
5192;DHT22;2615;44.524;11.284;2022-08-01T10:43:43;38.90;25.90
5192;DHT22;2615;44.524;11.284;2022-08-01T10:46:13;39.10;25.60
5192;DHT22;2615;44.524;11.284;2022-08-01T10:48:47;39.30;25.40
5192;DHT22;2615;44.524;11.284;2022-08-01T10:51:18;39.50;25.10
5192;DHT22;2615;44.524;11.284;2022-08-01T10:54:09;39.70;24.80
5192;DHT22;2615;44.524;11.284;2022-08-01T10:56:39;39.90;24.70
5192;DHT22;2615;44.524;11.284;2022-08-01T10:59:09;40.00;24.60
5192;DHT22;2615;44.524;11.284;2022-08-01T11:01:41;40.10;24.30
5192;DHT22;2615;44.524;11.284;2022-08-01T11:04:12;40.30;24.20
5192;DHT22;2615;44.524;11.284;2022-08-01T11:07:01;40.60;24.20
5192;DHT22;2615;44.524;11.284;2022-08-01T11:09:39;40.70;23.80
5192;DHT22;2615;44.524;11.284;2022-08-01T11:12:10;40.80;23.80
5192;DHT22;2615;44.524;11.284;2022-08-01T11:15:20;41.00;23.80
5192;DHT22;2615;44.524;11.284;2022-08-01T11:17:59;41.30;23.50
5192;DHT22;2615;44.524;11.284;2022-08-01T11:20:29;41.60;23.30
5192;DHT22;2615;44.524;11.284;2022-08-01T11:23:18;41.70;23.00
5192;DHT22;2615;44.524;11.284;2022-08-01T11:29:15;42.00;22.50
5192;DHT22;2615;44.524;11.284;2022-08-01T11:31:50;42.30;22.50
5192;DHT22;2615;44.524;11.284;2022-08-01T11:34:19;42.50;22.40
5192;DHT22;2615;44.524;11.284;2022-08-01T11:37:28;42.60;22.20
5192;DHT22;2615;44.524;11.284;2022-08-01T11:40:16;42.80;21.90
5192;DHT22;2615;44.524;11.284;2022-08-01T11:42:45;43.00;21.80
5192;DHT22;2615;44.524;11.284;2022-08-01T11:45:14;43.10;21.70
5192;DHT22;2615;44.524;11.284;2022-08-01T11:47:47;43.20;21.60
5192;DHT22;2615;44.524;11.284;2022-08-01T11:50:32;43.30;21.50
5192;DHT22;2615;44.524;11.284;2022-08-01T11:53:02;43.30;21.30
5192;DHT22;2615;44.524;11.284;2022-08-01T11:55:31;43.50;21.30
5192;DHT22;2615;44.524;11.284;2022-08-01T11:58:03;43.60;21.30
5192;DHT22;2615;44.524;11.284;2022-08-01T12:00:32;43.70;21.20
5192;DHT22;2615;44.524;11.284;2022-08-01T12:03:04;43.70;21.10
5192;DHT22;2615;44.524;11.284;2022-08-01T12:05:34;43.80;21.00
5192;DHT22;2615;44.524;11.284;2022-08-01T12:08:09;43.90;20.80
5192;DHT22;2615;44.524;11.284;2022-08-01T12:10:37;44.10;20.80
5192;DHT22;2615;44.524;11.284;2022-08-01T12:13:15;44.30;20.60
5192;DHT22;2615;44.524;11.284;2022-08-01T12:15:46;44.20;20.40
5192;DHT22;2615;44.524;11.284;2022-08-01T12:18:23;44.30;20.30
5192;DHT22;2615;44.524;11.284;2022-08-01T12:20:52;44.30;20.20
5192;DHT22;2615;44.524;11.284;2022-08-01T12:23:30;44.30;20.10
5192;DHT22;2615;44.524;11.284;2022-08-01T12:25:58;44.30;19.90
5192;DHT22;2615;44.524;11.284;2022-08-01T12:28:26;44.30;19.60
5192;DHT22;2615;44.524;11.284;2022-08-01T12:30:55;44.20;19.60
5192;DHT22;2615;44.524;11.284;2022-08-01T12:33:25;44.00;19.60
5192;DHT22;2615;44.524;11.284;2022-08-01T12:35:53;44.10;19.70
5192;DHT22;2615;44.524;11.284;2022-08-01T12:38:22;44.00;19.70
5192;DHT22;2615;44.524;11.284;2022-08-01T12:40:51;43.90;19.70
5192;DHT22;2615;44.524;11.284;2022-08-01T12:43:21;43.60;19.80
5192;DHT22;2615;44.524;11.284;2022-08-01T12:45:56;43.30;19.80
5192;DHT22;2615;44.524;11.284;2022-08-01T12:48:30;42.90;19.80
5192;DHT22;2615;44.524;11.284;2022-08-01T12:50:59;42.50;19.90
5192;DHT22;2615;44.524;11.284;2022-08-01T12:53:33;42.20;20.10
5192;DHT22;2615;44.524;11.284;2022-08-01T12:56:08;41.90;20.10
5192;DHT22;2615;44.524;11.284;2022-08-01T12:58:38;41.60;20.20
5192;DHT22;2615;44.524;11.284;2022-08-01T13:01:08;41.30;20.20
5192;DHT22;2615;44.524;11.284;2022-08-01T13:03:39;41.00;20.10
5192;DHT22;2615;44.524;11.284;2022-08-01T13:06:11;40.70;20.20
5192;DHT22;2615;44.524;11.284;2022-08-01T13:08:42;40.50;20.30
5192;DHT22;2615;44.524;11.284;2022-08-01T13:11:12;40.30;20.50
5192;DHT22;2615;44.524;11.284;2022-08-01T13:13:43;40.10;20.50
5192;DHT22;2615;44.524;11.284;2022-08-01T13:16:15;40.00;20.50
5192;DHT22;2615;44.524;11.284;2022-08-01T13:19:05;39.90;20.60
5192;DHT22;2615;44.524;11.284;2022-08-01T13:21:34;39.80;20.60
5192;DHT22;2615;44.524;11.284;2022-08-01T13:24:24;39.70;20.70
5192;DHT22;2615;44.524;11.284;2022-08-01T13:26:54;39.50;20.90
5192;DHT22;2615;44.524;11.284;2022-08-01T13:29:33;39.40;21.00
5192;DHT22;2615;44.524;11.284;2022-08-01T13:32:12;39.30;21.00
5192;DHT22;2615;44.524;11.284;2022-08-01T13:35:04;39.20;21.10
5192;DHT22;2615;44.524;11.284;2022-08-01T13:37:32;39.10;21.20
5192;DHT22;2615;44.524;11.284;2022-08-01T13:40:03;39.00;21.30
5192;DHT22;2615;44.524;11.284;2022-08-01T13:42:32;39.00;21.40
5192;DHT22;2615;44.524;11.284;2022-08-01T13:45:00;38.90;21.40
5192;DHT22;2615;44.524;11.284;2022-08-01T13:47:29;38.80;21.50
5192;DHT22;2615;44.524;11.284;2022-08-01T13:49:58;38.70;21.50
5192;DHT22;2615;44.524;11.284;2022-08-01T13:52:31;38.60;21.50
5192;DHT22;2615;44.524;11.284;2022-08-01T13:55:00;38.50;21.70
5192;DHT22;2615;44.524;11.284;2022-08-01T13:57:28;38.40;21.80
5192;DHT22;2615;44.524;11.284;2022-08-01T14:00:04;38.30;21.80
5192;DHT22;2615;44.524;11.284;2022-08-01T14:02:33;38.20;21.80
5192;DHT22;2615;44.524;11.284;2022-08-01T14:05:01;38.10;21.90
5192;DHT22;2615;44.524;11.284;2022-08-01T14:07:31;38.20;22.00
5192;DHT22;2615;44.524;11.284;2022-08-01T14:09:59;38.10;22.00
5192;DHT22;2615;44.524;11.284;2022-08-01T14:12:44;38.10;22.00
5192;DHT22;2615;44.524;11.284;2022-08-01T14:15:13;38.10;22.00
5192;DHT22;2615;44.524;11.284;2022-08-01T14:18:01;38.00;22.10
5192;DHT22;2615;44.524;11.284;2022-08-01T14:20:32;37.90;22.10
5192;DHT22;2615;44.524;11.284;2022-08-01T14:23:01;37.90;22.10
5192;DHT22;2615;44.524;11.284;2022-08-01T14:25:34;37.80;22.10
5192;DHT22;2615;44.524;11.284;2022-08-01T14:28:22;37.70;22.10
5192;DHT22;2615;44.524;11.284;2022-08-01T14:30:52;37.70;22.20
5192;DHT22;2615;44.524;11.284;2022-08-01T14:33:22;37.80;22.30
5192;DHT22;2615;44.524;11.284;2022-08-01T14:35:50;37.70;22.20
5192;DHT22;2615;44.524;11.284;2022-08-01T14:38:33;37.70;22.10
5192;DHT22;2615;44.524;11.284;2022-08-01T14:41:02;37.70;22.10
5192;DHT22;2615;44.524;11.284;2022-08-01T14:43:30;37.70;22.10
5192;DHT22;2615;44.524;11.284;2022-08-01T14:46:00;37.70;22.00
5192;DHT22;2615;44.524;11.284;2022-08-01T14:48:30;37.70;22.10
5192;DHT22;2615;44.524;11.284;2022-08-01T14:50:58;37.70;22.10
5192;DHT22;2615;44.524;11.284;2022-08-01T14:53:30;37.70;22.10
5192;DHT22;2615;44.524;11.284;2022-08-01T14:56:03;37.60;22.10
5192;DHT22;2615;44.524;11.284;2022-08-01T14:58:32;37.60;22.30
5192;DHT22;2615;44.524;11.284;2022-08-01T15:01:00;37.60;22.40
5192;DHT22;2615;44.524;11.284;2022-08-01T15:03:29;37.60;22.40
5192;DHT22;2615;44.524;11.284;2022-08-01T15:05:58;37.50;22.20
5192;DHT22;2615;44.524;11.284;2022-08-01T15:08:27;37.50;22.20
5192;DHT22;2615;44.524;11.284;2022-08-01T15:10:56;37.40;22.20
5192;DHT22;2615;44.524;11.284;2022-08-01T15:13:26;37.40;22.20
5192;DHT22;2615;44.524;11.284;2022-08-01T15:15:54;37.50;22.20
5192;DHT22;2615;44.524;11.284;2022-08-01T15:18:26;37.40;22.10
5192;DHT22;2615;44.524;11.284;2022-08-01T15:20:54;37.40;22.00
5192;DHT22;2615;44.524;11.284;2022-08-01T15:23:24;37.30;21.90
5192;DHT22;2615;44.524;11.284;2022-08-01T15:25:52;37.30;21.80
5192;DHT22;2615;44.524;11.284;2022-08-01T15:28:20;37.30;21.70
5192;DHT22;2615;44.524;11.284;2022-08-01T15:30:50;37.30;21.70
5192;DHT22;2615;44.524;11.284;2022-08-01T15:33:18;37.30;21.50
5192;DHT22;2615;44.524;11.284;2022-08-01T15:35:48;37.30;21.50
5192;DHT22;2615;44.524;11.284;2022-08-01T15:38:18;37.30;21.60
5192;DHT22;2615;44.524;11.284;2022-08-01T15:40:49;37.20;21.50
5192;DHT22;2615;44.524;11.284;2022-08-01T15:43:17;37.20;21.60
5192;DHT22;2615;44.524;11.284;2022-08-01T15:45:46;37.20;21.60
5192;DHT22;2615;44.524;11.284;2022-08-01T15:48:16;37.20;21.70
5192;DHT22;2615;44.524;11.284;2022-08-01T15:50:45;37.20;21.60
5192;DHT22;2615;44.524;11.284;2022-08-01T15:53:13;37.20;21.60
5192;DHT22;2615;44.524;11.284;2022-08-01T15:55:41;37.20;21.50
5192;DHT22;2615;44.524;11.284;2022-08-01T15:58:18;37.10;21.40
5192;DHT22;2615;44.524;11.284;2022-08-01T16:00:46;37.20;21.30
5192;DHT22;2615;44.524;11.284;2022-08-01T16:03:15;37.10;21.20
5192;DHT22;2615;44.524;11.284;2022-08-01T16:05:44;37.10;21.20
5192;DHT22;2615;44.524;11.284;2022-08-01T16:08:12;37.20;21.30
5192;DHT22;2615;44.524;11.284;2022-08-01T16:10:40;37.10;21.30
5192;DHT22;2615;44.524;11.284;2022-08-01T16:13:09;37.10;21.40
5192;DHT22;2615;44.524;11.284;2022-08-01T16:15:38;37.10;21.50
5192;DHT22;2615;44.524;11.284;2022-08-01T16:18:07;37.10;21.60